sensor_id;sensor_type;location;lat;lon;timestamp;pressure;altitude;pressure_sealevel;temperature;humidity
28456;BME280;15682;56.742;38.866;2022-10-04T00:01:46;98560.0;;;10.0;89.3
28456;BME280;15682;56.742;38.866;2022-10-04T00:03:36;98560.0;;;10.0;89.3
28456;BME280;15682;56.742;38.866;2022-10-04T00:05:33;98560.0;;;10.0;89.3
28456;BME280;15682;56.742;38.866;2022-10-04T00:07:35;98560.0;;;9.9;90.0
28456;BME280;15682;56.742;38.866;2022-10-04T00:09:35;98560.0;;;9.9;89.7
28456;BME280;15682;56.742;38.866;2022-10-04T00:11:35;98560.0;;;9.8;89.7
28456;BME280;15682;56.742;38.866;2022-10-04T00:13:34;98570.0;;;9.8;89.7
28456;BME280;15682;56.742;38.866;2022-10-04T00:15:35;98580.0;;;9.8;89.7
28456;BME280;15682;56.742;38.866;2022-10-04T00:17:33;98580.0;;;9.8;89.7
28456;BME280;15682;56.742;38.866;2022-10-04T00:19:40;98580.0;;;10.0;89.3
28456;BME280;15682;56.742;38.866;2022-10-04T00:23:48;98580.0;;;10.0;90.1
28456;BME280;15682;56.742;38.866;2022-10-04T00:25:35;98580.0;;;9.9;89.4
28456;BME280;15682;56.742;38.866;2022-10-04T00:27:34;98580.0;;;9.9;89.9
28456;BME280;15682;56.742;38.866;2022-10-04T00:29:36;98580.0;;;9.9;89.9
28456;BME280;15682;56.742;38.866;2022-10-04T00:33:36;98580.0;;;9.8;89.9
28456;BME280;15682;56.742;38.866;2022-10-04T00:35:49;98580.0;;;9.8;89.9
28456;BME280;15682;56.742;38.866;2022-10-04T00:37:52;98580.0;;;9.8;89.9
28456;BME280;15682;56.742;38.866;2022-10-04T00:39:41;98580.0;;;9.8;90.2
28456;BME280;15682;56.742;38.866;2022-10-04T00:41:41;98580.0;;;9.8;90.2
28456;BME280;15682;56.742;38.866;2022-10-04T00:43:38;98580.0;;;9.8;90.2
28456;BME280;15682;56.742;38.866;2022-10-04T00:45:38;98580.0;;;9.7;90.2
28456;BME280;15682;56.742;38.866;2022-10-04T00:47:43;98580.0;;;9.7;90.2
28456;BME280;15682;56.742;38.866;2022-10-04T00:49:38;98580.0;;;9.7;90.2
28456;BME280;15682;56.742;38.866;2022-10-04T00:51:39;98580.0;;;9.7;90.2
28456;BME280;15682;56.742;38.866;2022-10-04T00:53:41;98580.0;;;9.7;90.0
28456;BME280;15682;56.742;38.866;2022-10-04T00:55:39;98580.0;;;9.8;90.0
28456;BME280;15682;56.742;38.866;2022-10-04T00:57:39;98580.0;;;9.9;89.8
28456;BME280;15682;56.742;38.866;2022-10-04T00:59:38;98580.0;;;9.9;89.9
28456;BME280;15682;56.742;38.866;2022-10-04T01:01:36;98580.0;;;9.9;89.9
28456;BME280;15682;56.742;38.866;2022-10-04T01:03:38;98590.0;;;9.9;89.9
28456;BME280;15682;56.742;38.866;2022-10-04T01:05:38;98590.0;;;10.0;89.2
28456;BME280;15682;56.742;38.866;2022-10-04T01:07:39;98590.0;;;10.0;89.8
28456;BME280;15682;56.742;38.866;2022-10-04T01:09:44;98590.0;;;10.0;90.7
28456;BME280;15682;56.742;38.866;2022-10-04T01:11:40;98590.0;;;10.0;89.4
28456;BME280;15682;56.742;38.866;2022-10-04T01:13:38;98590.0;;;10.0;89.4
28456;BME280;15682;56.742;38.866;2022-10-04T01:15:42;98590.0;;;10.0;89.4
28456;BME280;15682;56.742;38.866;2022-10-04T01:17:37;98590.0;;;10.0;90.0
28456;BME280;15682;56.742;38.866;2022-10-04T01:19:37;98590.0;;;10.0;90.1
28456;BME280;15682;56.742;38.866;2022-10-04T01:21:37;98590.0;;;10.0;90.1
28456;BME280;15682;56.742;38.866;2022-10-04T01:23:40;98590.0;;;10.0;90.1
28456;BME280;15682;56.742;38.866;2022-10-04T01:25:47;98590.0;;;10.0;90.1
28456;BME280;15682;56.742;38.866;2022-10-04T01:27:41;98600.0;;;10.0;90.1
28456;BME280;15682;56.742;38.866;2022-10-04T01:29:38;98600.0;;;10.0;89.6
28456;BME280;15682;56.742;38.866;2022-10-04T01:31:40;98610.0;;;10.0;90.1
28456;BME280;15682;56.742;38.866;2022-10-04T01:33:38;98610.0;;;10.0;90.1
28456;BME280;15682;56.742;38.866;2022-10-04T01:35:38;98620.0;;;10.0;89.4
28456;BME280;15682;56.742;38.866;2022-10-04T01:37:39;98620.0;;;10.0;90.2
28456;BME280;15682;56.742;38.866;2022-10-04T01:39:39;98620.0;;;10.0;89.5
28456;BME280;15682;56.742;38.866;2022-10-04T01:41:43;98620.0;;;10.0;89.5
28456;BME280;15682;56.742;38.866;2022-10-04T01:43:41;98620.0;;;10.0;89.5
28456;BME280;15682;56.742;38.866;2022-10-04T01:45:41;98620.0;;;10.0;90.2
28456;BME280;15682;56.742;38.866;2022-10-04T01:47:42;98620.0;;;9.9;90.2
28456;BME280;15682;56.742;38.866;2022-10-04T01:49:41;98620.0;;;9.9;90.1
28456;BME280;15682;56.742;38.866;2022-10-04T01:51:44;98620.0;;;9.9;89.6
28456;BME280;15682;56.742;38.866;2022-10-04T01:53:41;98620.0;;;10.0;90.3
28456;BME280;15682;56.742;38.866;2022-10-04T01:55:42;98620.0;;;9.9;90.3
28456;BME280;15682;56.742;38.866;2022-10-04T01:57:45;98620.0;;;9.9;90.3
28456;BME280;15682;56.742;38.866;2022-10-04T01:59:45;98620.0;;;9.9;90.1
28456;BME280;15682;56.742;38.866;2022-10-04T02:01:43;98620.0;;;9.9;89.8
28456;BME280;15682;56.742;38.866;2022-10-04T02:03:42;98620.0;;;9.9;89.8
28456;BME280;15682;56.742;38.866;2022-10-04T02:05:48;98620.0;;;10.0;89.8
28456;BME280;15682;56.742;38.866;2022-10-04T02:07:40;98620.0;;;9.9;89.8
28456;BME280;15682;56.742;38.866;2022-10-04T02:09:43;98620.0;;;9.9;90.4
28456;BME280;15682;56.742;38.866;2022-10-04T02:11:42;98620.0;;;10.0;90.4
28456;BME280;15682;56.742;38.866;2022-10-04T02:13:42;98620.0;;;10.0;89.8
28456;BME280;15682;56.742;38.866;2022-10-04T02:15:41;98620.0;;;10.0;89.8
28456;BME280;15682;56.742;38.866;2022-10-04T02:17:42;98620.0;;;10.0;89.8
28456;BME280;15682;56.742;38.866;2022-10-04T02:19:42;98620.0;;;10.0;89.9
28456;BME280;15682;56.742;38.866;2022-10-04T02:21:42;98620.0;;;10.0;90.3
28456;BME280;15682;56.742;38.866;2022-10-04T02:23:42;98630.0;;;10.0;89.7
28456;BME280;15682;56.742;38.866;2022-10-04T02:25:42;98630.0;;;10.0;89.7
28456;BME280;15682;56.742;38.866;2022-10-04T02:27:42;98640.0;;;10.0;89.2
28456;BME280;15682;56.742;38.866;2022-10-04T02:29:42;98640.0;;;10.0;89.3
28456;BME280;15682;56.742;38.866;2022-10-04T02:31:42;98650.0;;;10.1;89.3
28456;BME280;15682;56.742;38.866;2022-10-04T02:33:44;98650.0;;;10.1;89.3
28456;BME280;15682;56.742;38.866;2022-10-04T02:35:45;98650.0;;;10.1;89.3
28456;BME280;15682;56.742;38.866;2022-10-04T02:37:43;98650.0;;;10.1;89.7
28456;BME280;15682;56.742;38.866;2022-10-04T02:39:45;98650.0;;;10.1;89.0
28456;BME280;15682;56.742;38.866;2022-10-04T02:41:46;98650.0;;;10.1;89.0
28456;BME280;15682;56.742;38.866;2022-10-04T02:43:48;98650.0;;;10.1;89.0
28456;BME280;15682;56.742;38.866;2022-10-04T02:45:47;98650.0;;;10.2;89.0
28456;BME280;15682;56.742;38.866;2022-10-04T02:47:45;98650.0;;;10.2;89.0
28456;BME280;15682;56.742;38.866;2022-10-04T02:49:45;98660.0;;;10.2;89.4
28456;BME280;15682;56.742;38.866;2022-10-04T02:51:46;98660.0;;;10.2;89.4
28456;BME280;15682;56.742;38.866;2022-10-04T02:53:49;98670.0;;;10.2;89.4
28456;BME280;15682;56.742;38.866;2022-10-04T02:55:44;98670.0;;;10.2;89.4
28456;BME280;15682;56.742;38.866;2022-10-04T02:57:44;98670.0;;;10.2;89.4
28456;BME280;15682;56.742;38.866;2022-10-04T02:59:44;98670.0;;;10.2;89.1
28456;BME280;15682;56.742;38.866;2022-10-04T03:01:49;98670.0;;;10.2;89.1
28456;BME280;15682;56.742;38.866;2022-10-04T03:03:45;98670.0;;;10.2;89.1
28456;BME280;15682;56.742;38.866;2022-10-04T03:05:54;98670.0;;;10.1;89.1
28456;BME280;15682;56.742;38.866;2022-10-04T03:07:44;98670.0;;;10.1;89.1
28456;BME280;15682;56.742;38.866;2022-10-04T03:09:45;98670.0;;;10.1;89.3
28456;BME280;15682;56.742;38.866;2022-10-04T03:11:45;98680.0;;;10.1;89.3
28456;BME280;15682;56.742;38.866;2022-10-04T03:13:47;98680.0;;;10.1;89.3
28456;BME280;15682;56.742;38.866;2022-10-04T03:15:46;98680.0;;;10.1;89.3
28456;BME280;15682;56.742;38.866;2022-10-04T03:17:45;98680.0;;;10.1;89.3
28456;BME280;15682;56.742;38.866;2022-10-04T03:19:47;98680.0;;;10.1;89.2
28456;BME280;15682;56.742;38.866;2022-10-04T03:21:48;98690.0;;;10.1;89.2
28456;BME280;15682;56.742;38.866;2022-10-04T03:23:47;98690.0;;;10.1;89.2
28456;BME280;15682;56.742;38.866;2022-10-04T03:25:50;98690.0;;;10.1;89.2
28456;BME280;15682;56.742;38.866;2022-10-04T03:27:46;98690.0;;;10.1;89.2
28456;BME280;15682;56.742;38.866;2022-10-04T03:29:46;98690.0;;;10.1;89.1
28456;BME280;15682;56.742;38.866;2022-10-04T03:31:48;98690.0;;;10.1;89.1
28456;BME280;15682;56.742;38.866;2022-10-04T03:33:46;98690.0;;;10.1;89.1
28456;BME280;15682;56.742;38.866;2022-10-04T03:35:49;98700.0;;;10.1;89.1
28456;BME280;15682;56.742;38.866;2022-10-04T03:37:46;98700.0;;;10.1;89.6
28456;BME280;15682;56.742;38.866;2022-10-04T03:39:48;98700.0;;;10.1;89.8
28456;BME280;15682;56.742;38.866;2022-10-04T03:41:47;98700.0;;;10.0;89.8
28456;BME280;15682;56.742;38.866;2022-10-04T03:43:47;98700.0;;;10.0;89.8
28456;BME280;15682;56.742;38.866;2022-10-04T03:45:47;98700.0;;;9.9;89.8
28456;BME280;15682;56.742;38.866;2022-10-04T03:47:49;98700.0;;;9.9;90.1
28456;BME280;15682;56.742;38.866;2022-10-04T03:49:48;98700.0;;;9.9;90.0
28456;BME280;15682;56.742;38.866;2022-10-04T03:51:48;98700.0;;;9.9;90.0
28456;BME280;15682;56.742;38.866;2022-10-04T03:53:49;98700.0;;;9.9;90.0
28456;BME280;15682;56.742;38.866;2022-10-04T03:55:47;98700.0;;;10.0;90.0
28456;BME280;15682;56.742;38.866;2022-10-04T03:57:47;98700.0;;;10.0;90.0
28456;BME280;15682;56.742;38.866;2022-10-04T03:59:48;98700.0;;;10.0;89.8
28456;BME280;15682;56.742;38.866;2022-10-04T04:01:53;98700.0;;;10.0;89.8
28456;BME280;15682;56.742;38.866;2022-10-04T04:03:55;98700.0;;;10.0;89.6
28456;BME280;15682;56.742;38.866;2022-10-04T04:05:51;98700.0;;;10.0;89.6
28456;BME280;15682;56.742;38.866;2022-10-04T04:07:54;98700.0;;;10.0;89.6
28456;BME280;15682;56.742;38.866;2022-10-04T04:09:52;98700.0;;;10.0;89.8
28456;BME280;15682;56.742;38.866;2022-10-04T04:11:49;98700.0;;;10.0;89.8
28456;BME280;15682;56.742;38.866;2022-10-04T04:13:54;98700.0;;;10.0;89.8
28456;BME280;15682;56.742;38.866;2022-10-04T04:15:49;98700.0;;;10.0;89.8
28456;BME280;15682;56.742;38.866;2022-10-04T04:17:50;98700.0;;;10.0;89.8
28456;BME280;15682;56.742;38.866;2022-10-04T04:19:49;98700.0;;;10.1;89.5
28456;BME280;15682;56.742;38.866;2022-10-04T04:21:50;98710.0;;;10.1;88.9
28456;BME280;15682;56.742;38.866;2022-10-04T04:23:53;98710.0;;;10.2;88.9
28456;BME280;15682;56.742;38.866;2022-10-04T04:25:52;98710.0;;;10.2;88.9
28456;BME280;15682;56.742;38.866;2022-10-04T04:27:52;98710.0;;;10.2;88.9
28456;BME280;15682;56.742;38.866;2022-10-04T04:29:51;98720.0;;;10.1;88.9
28456;BME280;15682;56.742;38.866;2022-10-04T04:31:51;98720.0;;;10.1;89.5
28456;BME280;15682;56.742;38.866;2022-10-04T04:33:55;98720.0;;;10.0;90.0
28456;BME280;15682;56.742;38.866;2022-10-04T04:35:54;98720.0;;;9.9;90.0
28456;BME280;15682;56.742;38.866;2022-10-04T04:38:09;98720.0;;;9.9;89.9
28456;BME280;15682;56.742;38.866;2022-10-04T04:39:52;98720.0;;;9.9;89.9
28456;BME280;15682;56.742;38.866;2022-10-04T04:41:50;98720.0;;;9.9;89.9
28456;BME280;15682;56.742;38.866;2022-10-04T04:43:50;98720.0;;;10.0;89.9
28456;BME280;15682;56.742;38.866;2022-10-04T04:45:51;98720.0;;;10.0;89.2
28456;BME280;15682;56.742;38.866;2022-10-04T04:47:52;98720.0;;;9.9;89.8
28456;BME280;15682;56.742;38.866;2022-10-04T04:49:51;98720.0;;;9.8;89.5
28456;BME280;15682;56.742;38.866;2022-10-04T04:51:51;98720.0;;;9.8;89.5
28456;BME280;15682;56.742;38.866;2022-10-04T04:53:52;98720.0;;;9.8;90.3
28456;BME280;15682;56.742;38.866;2022-10-04T04:55:54;98730.0;;;9.9;90.3
28456;BME280;15682;56.742;38.866;2022-10-04T04:57:54;98730.0;;;10.1;89.3
28456;BME280;15682;56.742;38.866;2022-10-04T04:59:54;98730.0;;;10.1;89.3
28456;BME280;15682;56.742;38.866;2022-10-04T05:01:51;98730.0;;;10.2;88.8
28456;BME280;15682;56.742;38.866;2022-10-04T05:04:00;98730.0;;;10.2;88.2
28456;BME280;15682;56.742;38.866;2022-10-04T05:05:52;98730.0;;;10.2;88.2
28456;BME280;15682;56.742;38.866;2022-10-04T05:08:10;98730.0;;;10.2;87.7
28456;BME280;15682;56.742;38.866;2022-10-04T05:09:52;98730.0;;;10.2;87.7
28456;BME280;15682;56.742;38.866;2022-10-04T05:11:55;98730.0;;;10.3;88.3
28456;BME280;15682;56.742;38.866;2022-10-04T05:13:55;98730.0;;;10.4;88.3
28456;BME280;15682;56.742;38.866;2022-10-04T05:15:53;98720.0;;;10.4;88.3
28456;BME280;15682;56.742;38.866;2022-10-04T05:17:52;98720.0;;;10.5;88.1
28456;BME280;15682;56.742;38.866;2022-10-04T05:19:56;98720.0;;;10.5;87.7
28456;BME280;15682;56.742;38.866;2022-10-04T05:21:54;98720.0;;;10.5;87.7
28456;BME280;15682;56.742;38.866;2022-10-04T05:23:54;98720.0;;;10.7;87.0
28456;BME280;15682;56.742;38.866;2022-10-04T05:25:53;98720.0;;;10.7;87.0
28456;BME280;15682;56.742;38.866;2022-10-04T05:27:53;98720.0;;;10.8;86.6
28456;BME280;15682;56.742;38.866;2022-10-04T05:30:01;98720.0;;;10.9;86.5
28456;BME280;15682;56.742;38.866;2022-10-04T05:32:02;98730.0;;;10.9;86.5
28456;BME280;15682;56.742;38.866;2022-10-04T05:33:56;98730.0;;;10.9;86.0
28456;BME280;15682;56.742;38.866;2022-10-04T05:36:07;98730.0;;;10.9;86.0
28456;BME280;15682;56.742;38.866;2022-10-04T05:37:59;98730.0;;;11.1;86.4
28456;BME280;15682;56.742;38.866;2022-10-04T05:40:03;98730.0;;;11.1;86.4
28456;BME280;15682;56.742;38.866;2022-10-04T05:42:00;98730.0;;;11.1;86.4
28456;BME280;15682;56.742;38.866;2022-10-04T05:43:56;98730.0;;;11.2;85.0
28456;BME280;15682;56.742;38.866;2022-10-04T05:46:17;98730.0;;;11.2;85.0
28456;BME280;15682;56.742;38.866;2022-10-04T05:47:56;98730.0;;;11.2;85.7
28456;BME280;15682;56.742;38.866;2022-10-04T05:49:56;98730.0;;;11.2;85.2
28456;BME280;15682;56.742;38.866;2022-10-04T05:51:58;98730.0;;;11.2;85.2
28456;BME280;15682;56.742;38.866;2022-10-04T05:53:56;98730.0;;;11.3;85.2
28456;BME280;15682;56.742;38.866;2022-10-04T05:56:02;98730.0;;;11.3;84.4
28456;BME280;15682;56.742;38.866;2022-10-04T05:58:09;98730.0;;;11.4;84.5
28456;BME280;15682;56.742;38.866;2022-10-04T06:00:03;98730.0;;;11.6;83.8
28456;BME280;15682;56.742;38.866;2022-10-04T06:02:07;98730.0;;;11.6;83.8
28456;BME280;15682;56.742;38.866;2022-10-04T06:04:10;98730.0;;;11.6;83.8
28456;BME280;15682;56.742;38.866;2022-10-04T06:06:00;98730.0;;;11.7;83.8
28456;BME280;15682;56.742;38.866;2022-10-04T06:07:59;98730.0;;;11.7;83.3
28456;BME280;15682;56.742;38.866;2022-10-04T06:10:07;98730.0;;;11.7;83.3
28456;BME280;15682;56.742;38.866;2022-10-04T06:12:03;98730.0;;;11.7;83.3
28456;BME280;15682;56.742;38.866;2022-10-04T06:14:23;98730.0;;;11.9;83.3
28456;BME280;15682;56.742;38.866;2022-10-04T06:16:07;98730.0;;;11.9;82.8
28456;BME280;15682;56.742;38.866;2022-10-04T06:18:08;98730.0;;;11.9;82.3
28456;BME280;15682;56.742;38.866;2022-10-04T06:20:08;98730.0;;;11.9;82.3
28456;BME280;15682;56.742;38.866;2022-10-04T06:22:09;98730.0;;;12.0;82.3
28456;BME280;15682;56.742;38.866;2022-10-04T06:24:01;98730.0;;;12.1;82.3
28456;BME280;15682;56.742;38.866;2022-10-04T06:26:00;98730.0;;;12.1;81.3
28456;BME280;15682;56.742;38.866;2022-10-04T06:28:04;98730.0;;;12.1;82.0
28456;BME280;15682;56.742;38.866;2022-10-04T06:30:01;98730.0;;;12.2;82.0
28456;BME280;15682;56.742;38.866;2022-10-04T06:32:17;98730.0;;;12.2;82.0
28456;BME280;15682;56.742;38.866;2022-10-04T06:34:15;98730.0;;;12.4;80.6
28456;BME280;15682;56.742;38.866;2022-10-04T06:36:10;98730.0;;;12.4;80.6
28456;BME280;15682;56.742;38.866;2022-10-04T06:38:19;98740.0;;;12.4;81.1
28456;BME280;15682;56.742;38.866;2022-10-04T06:40:15;98740.0;;;12.6;81.2
28456;BME280;15682;56.742;38.866;2022-10-04T06:42:12;98750.0;;;12.6;80.4
28456;BME280;15682;56.742;38.866;2022-10-04T06:44:14;98750.0;;;12.6;80.4
28456;BME280;15682;56.742;38.866;2022-10-04T06:46:06;98750.0;;;12.5;79.8
28456;BME280;15682;56.742;38.866;2022-10-04T06:48:12;98750.0;;;12.5;79.8
28456;BME280;15682;56.742;38.866;2022-10-04T06:50:11;98750.0;;;12.9;79.8
28456;BME280;15682;56.742;38.866;2022-10-04T06:52:12;98750.0;;;12.9;79.1
28456;BME280;15682;56.742;38.866;2022-10-04T06:54:08;98750.0;;;13.0;79.1
28456;BME280;15682;56.742;38.866;2022-10-04T06:56:12;98750.0;;;12.9;79.1
28456;BME280;15682;56.742;38.866;2022-10-04T07:00:07;98750.0;;;12.9;77.4
28456;BME280;15682;56.742;38.866;2022-10-04T07:02:04;98750.0;;;12.9;77.4
28456;BME280;15682;56.742;38.866;2022-10-04T07:04:11;98750.0;;;12.9;77.4
28456;BME280;15682;56.742;38.866;2022-10-04T07:06:03;98750.0;;;13.0;77.4
28456;BME280;15682;56.742;38.866;2022-10-04T07:08:06;98750.0;;;13.2;77.0
28456;BME280;15682;56.742;38.866;2022-10-04T07:10:15;98750.0;;;13.2;76.5
28456;BME280;15682;56.742;38.866;2022-10-04T07:12:04;98750.0;;;13.2;76.8
28456;BME280;15682;56.742;38.866;2022-10-04T07:14:08;98750.0;;;13.2;76.6
28456;BME280;15682;56.742;38.866;2022-10-04T07:16:05;98750.0;;;13.3;76.6
28456;BME280;15682;56.742;38.866;2022-10-04T07:18:05;98750.0;;;13.4;76.6
28456;BME280;15682;56.742;38.866;2022-10-04T07:20:04;98740.0;;;13.5;75.8
28456;BME280;15682;56.742;38.866;2022-10-04T07:22:13;98740.0;;;13.5;75.8
28456;BME280;15682;56.742;38.866;2022-10-04T07:24:03;98740.0;;;13.5;75.8
28456;BME280;15682;56.742;38.866;2022-10-04T07:26:05;98740.0;;;13.5;75.8
28456;BME280;15682;56.742;38.866;2022-10-04T07:28:10;98740.0;;;13.7;75.1
28456;BME280;15682;56.742;38.866;2022-10-04T07:30:06;98740.0;;;13.8;75.1
28456;BME280;15682;56.742;38.866;2022-10-04T07:32:07;98740.0;;;13.6;75.1
28456;BME280;15682;56.742;38.866;2022-10-04T07:34:09;98740.0;;;14.1;74.7
28456;BME280;15682;56.742;38.866;2022-10-04T07:36:06;98740.0;;;14.1;74.7
28456;BME280;15682;56.742;38.866;2022-10-04T07:38:12;98740.0;;;13.9;74.3
28456;BME280;15682;56.742;38.866;2022-10-04T07:40:08;98740.0;;;13.9;74.0
28456;BME280;15682;56.742;38.866;2022-10-04T07:42:14;98740.0;;;14.0;74.0
28456;BME280;15682;56.742;38.866;2022-10-04T07:44:12;98740.0;;;14.0;74.5
28456;BME280;15682;56.742;38.866;2022-10-04T07:46:16;98740.0;;;14.1;74.5
28456;BME280;15682;56.742;38.866;2022-10-04T07:48:12;98740.0;;;14.1;73.6
28456;BME280;15682;56.742;38.866;2022-10-04T07:50:22;98740.0;;;14.2;73.6
28456;BME280;15682;56.742;38.866;2022-10-04T07:52:23;98740.0;;;14.2;73.6
28456;BME280;15682;56.742;38.866;2022-10-04T07:54:12;98740.0;;;14.1;73.6
28456;BME280;15682;56.742;38.866;2022-10-04T07:56:10;98740.0;;;14.2;73.6
28456;BME280;15682;56.742;38.866;2022-10-04T07:58:21;98740.0;;;14.2;73.9
28456;BME280;15682;56.742;38.866;2022-10-04T08:00:12;98750.0;;;14.3;73.9
28456;BME280;15682;56.742;38.866;2022-10-04T08:02:18;98750.0;;;14.2;73.1
28456;BME280;15682;56.742;38.866;2022-10-04T08:04:16;98750.0;;;14.2;73.1
28456;BME280;15682;56.742;38.866;2022-10-04T08:06:12;98750.0;;;14.2;73.1
28456;BME280;15682;56.742;38.866;2022-10-04T08:08:21;98750.0;;;14.4;72.9
28456;BME280;15682;56.742;38.866;2022-10-04T08:10:15;98750.0;;;14.4;72.4
28456;BME280;15682;56.742;38.866;2022-10-04T08:12:17;98750.0;;;14.6;71.8
28456;BME280;15682;56.742;38.866;2022-10-04T08:14:22;98750.0;;;14.4;71.8
28456;BME280;15682;56.742;38.866;2022-10-04T08:16:15;98750.0;;;14.3;72.9
28456;BME280;15682;56.742;38.866;2022-10-04T08:18:20;98750.0;;;14.5;72.6
28456;BME280;15682;56.742;38.866;2022-10-04T08:20:22;98750.0;;;14.5;71.8
28456;BME280;15682;56.742;38.866;2022-10-04T08:22:20;98750.0;;;14.5;71.8
28456;BME280;15682;56.742;38.866;2022-10-04T08:24:16;98750.0;;;14.5;70.6
28456;BME280;15682;56.742;38.866;2022-10-04T08:26:18;98750.0;;;14.5;70.6
28456;BME280;15682;56.742;38.866;2022-10-04T08:28:18;98750.0;;;14.5;71.4
28456;BME280;15682;56.742;38.866;2022-10-04T08:30:12;98750.0;;;14.6;71.4
28456;BME280;15682;56.742;38.866;2022-10-04T08:32:26;98750.0;;;14.5;70.3
28456;BME280;15682;56.742;38.866;2022-10-04T08:34:24;98750.0;;;14.5;71.6
28456;BME280;15682;56.742;38.866;2022-10-04T08:36:19;98750.0;;;14.5;71.6
28456;BME280;15682;56.742;38.866;2022-10-04T08:38:21;98750.0;;;14.6;71.4
28456;BME280;15682;56.742;38.866;2022-10-04T08:40:36;98750.0;;;14.9;71.4
28456;BME280;15682;56.742;38.866;2022-10-04T08:42:34;98760.0;;;14.7;69.7
28456;BME280;15682;56.742;38.866;2022-10-04T08:46:39;98760.0;;;14.7;70.6
28456;BME280;15682;56.742;38.866;2022-10-04T08:48:29;98760.0;;;14.7;69.9
28456;BME280;15682;56.742;38.866;2022-10-04T08:50:27;98760.0;;;14.9;69.1
28456;BME280;15682;56.742;38.866;2022-10-04T08:52:28;98760.0;;;14.9;69.6
28456;BME280;15682;56.742;38.866;2022-10-04T08:54:32;98760.0;;;14.9;69.6
28456;BME280;15682;56.742;38.866;2022-10-04T08:56:19;98760.0;;;14.7;69.6
28456;BME280;15682;56.742;38.866;2022-10-04T08:58:15;98760.0;;;14.7;70.3
28456;BME280;15682;56.742;38.866;2022-10-04T09:00:19;98760.0;;;14.7;69.6
28456;BME280;15682;56.742;38.866;2022-10-04T09:02:34;98760.0;;;14.8;68.4
28456;BME280;15682;56.742;38.866;2022-10-04T09:06:27;98760.0;;;14.8;69.7
28456;BME280;15682;56.742;38.866;2022-10-04T09:10:32;98760.0;;;14.9;70.4
28456;BME280;15682;56.742;38.866;2022-10-04T09:12:34;98770.0;;;14.9;68.9
28456;BME280;15682;56.742;38.866;2022-10-04T09:14:28;98770.0;;;14.9;69.5
28456;BME280;15682;56.742;38.866;2022-10-04T09:16:17;98770.0;;;14.8;69.6
28456;BME280;15682;56.742;38.866;2022-10-04T09:18:22;98770.0;;;14.8;69.3
28456;BME280;15682;56.742;38.866;2022-10-04T09:20:21;98780.0;;;14.8;69.0
28456;BME280;15682;56.742;38.866;2022-10-04T09:22:18;98780.0;;;14.5;69.6
28456;BME280;15682;56.742;38.866;2022-10-04T09:24:45;98780.0;;;14.5;69.6
28456;BME280;15682;56.742;38.866;2022-10-04T09:26:21;98780.0;;;14.7;70.1
28456;BME280;15682;56.742;38.866;2022-10-04T09:30:18;98780.0;;;15.0;69.1
28456;BME280;15682;56.742;38.866;2022-10-04T09:32:26;98780.0;;;15.0;69.1
28456;BME280;15682;56.742;38.866;2022-10-04T09:34:29;98780.0;;;15.1;69.1
28456;BME280;15682;56.742;38.866;2022-10-04T09:36:30;98780.0;;;15.0;68.1
28456;BME280;15682;56.742;38.866;2022-10-04T09:38:33;98780.0;;;14.8;67.6
28456;BME280;15682;56.742;38.866;2022-10-04T09:40:36;98780.0;;;14.8;68.2
28456;BME280;15682;56.742;38.866;2022-10-04T09:42:30;98780.0;;;15.1;68.8
28456;BME280;15682;56.742;38.866;2022-10-04T09:44:39;98780.0;;;15.1;68.8
28456;BME280;15682;56.742;38.866;2022-10-04T09:46:38;98780.0;;;15.1;68.8
28456;BME280;15682;56.742;38.866;2022-10-04T09:48:24;98780.0;;;15.0;69.9
28456;BME280;15682;56.742;38.866;2022-10-04T09:50:40;98780.0;;;14.9;70.9
28456;BME280;15682;56.742;38.866;2022-10-04T09:52:30;98780.0;;;14.9;70.9
28456;BME280;15682;56.742;38.866;2022-10-04T09:54:43;98780.0;;;14.7;70.9
28456;BME280;15682;56.742;38.866;2022-10-04T09:56:35;98780.0;;;14.7;69.8
28456;BME280;15682;56.742;38.866;2022-10-04T09:58:33;98780.0;;;14.8;69.5
28456;BME280;15682;56.742;38.866;2022-10-04T10:00:22;98780.0;;;14.9;69.5
28456;BME280;15682;56.742;38.866;2022-10-04T10:02:40;98770.0;;;15.2;69.0
28456;BME280;15682;56.742;38.866;2022-10-04T10:04:33;98770.0;;;15.1;69.7
28456;BME280;15682;56.742;38.866;2022-10-04T10:06:45;98760.0;;;15.0;68.0
28456;BME280;15682;56.742;38.866;2022-10-04T10:08:28;98760.0;;;15.0;69.4
28456;BME280;15682;56.742;38.866;2022-10-04T10:10:28;98770.0;;;15.1;68.9
28456;BME280;15682;56.742;38.866;2022-10-04T10:12:30;98770.0;;;15.1;68.9
28456;BME280;15682;56.742;38.866;2022-10-04T10:14:40;98780.0;;;15.1;68.9
28456;BME280;15682;56.742;38.866;2022-10-04T10:16:32;98770.0;;;15.0;69.5
28456;BME280;15682;56.742;38.866;2022-10-04T10:18:29;98770.0;;;15.0;70.6
28456;BME280;15682;56.742;38.866;2022-10-04T10:20:44;98770.0;;;15.0;69.6
28456;BME280;15682;56.742;38.866;2022-10-04T10:22:37;98770.0;;;15.0;69.6
28456;BME280;15682;56.742;38.866;2022-10-04T10:24:35;98770.0;;;15.0;69.6
28456;BME280;15682;56.742;38.866;2022-10-04T10:26:41;98770.0;;;14.8;69.6
28456;BME280;15682;56.742;38.866;2022-10-04T10:28:38;98770.0;;;14.8;69.9
28456;BME280;15682;56.742;38.866;2022-10-04T10:30:26;98780.0;;;14.8;70.2
28456;BME280;15682;56.742;38.866;2022-10-04T10:32:37;98780.0;;;14.8;70.2
28456;BME280;15682;56.742;38.866;2022-10-04T10:34:35;98780.0;;;14.8;70.2
28456;BME280;15682;56.742;38.866;2022-10-04T10:36:35;98780.0;;;14.8;70.2
28456;BME280;15682;56.742;38.866;2022-10-04T10:38:35;98780.0;;;15.1;70.1
28456;BME280;15682;56.742;38.866;2022-10-04T10:40:39;98780.0;;;15.1;70.1
28456;BME280;15682;56.742;38.866;2022-10-04T10:44:35;98780.0;;;15.1;69.6
28456;BME280;15682;56.742;38.866;2022-10-04T10:46:41;98780.0;;;15.3;69.6
28456;BME280;15682;56.742;38.866;2022-10-04T10:48:36;98780.0;;;15.4;69.4
28456;BME280;15682;56.742;38.866;2022-10-04T10:50:48;98780.0;;;15.3;68.1
28456;BME280;15682;56.742;38.866;2022-10-04T10:52:49;98780.0;;;15.3;68.8
28456;BME280;15682;56.742;38.866;2022-10-04T10:54:44;98780.0;;;15.3;69.4
28456;BME280;15682;56.742;38.866;2022-10-04T10:56:42;98780.0;;;15.1;69.4
28456;BME280;15682;56.742;38.866;2022-10-04T10:58:51;98770.0;;;15.1;68.9
28456;BME280;15682;56.742;38.866;2022-10-04T11:00:34;98770.0;;;15.0;69.2
28456;BME280;15682;56.742;38.866;2022-10-04T11:04:46;98770.0;;;15.1;69.2
28456;BME280;15682;56.742;38.866;2022-10-04T11:06:51;98770.0;;;14.9;69.9
28456;BME280;15682;56.742;38.866;2022-10-04T11:08:51;98770.0;;;14.9;70.4
28456;BME280;15682;56.742;38.866;2022-10-04T11:10:55;98770.0;;;14.9;70.9
28456;BME280;15682;56.742;38.866;2022-10-04T11:12:47;98770.0;;;14.9;70.9